首页
METAR-TAF:

METAR-TAF

机场 :

科尔多瓦, 阿根廷

纬度: 31-19S, 经度: 064-13W, 海拔: 484米

当前天气观测

该预报发布于24分钟前的21:00 UTC
风速10节,风向北转东北
温度 20°C
湿度 37%
气压 1017 hPa
能见度10公里或以上
1500米以下无云,无积雨云

METAR: SACO 182100Z 02010KT CAVOK 20/05 Q1017 NOSIG

时间: 18:24 (21:24 UTC)

预报

该预报发布于4小时和24分钟前的17:00 UTC
预报有效从18日的 18点(UTC)到 19日的 18点(UTC)
风速10节,风向北转东北
能见度10公里或以上
散云层高于4000英尺
成为
从 19日的 06点(UTC)到 19日的 09点(UTC)
风速10节,风向

TAF: SACO 181700Z 1818/1918 02010KT 9999 SCT040 TX23/1918Z TNM02/1909Z BECMG 1906/1909 36010KT

超过4000个机场的气象观测和天气预报(METAR&TAF报告)。

可查询的气象台以黄色和红色小点在地图上表示。

将鼠标移到小点上方,可查看气象台名称。

然后点击查看天气观测和预报。

如需切换地图:点击带黑十字的绿色按钮放大地图;点击带横线的绿色按钮缩小地图;或者点击绿色箭头查看邻近地区的地图。


METAR-TAF: